Time;durP1;ratioP1;P1;durP2;ratioP2;P2;SDS_P1;SDS_P2;PMS_P1;PMS_P2;Temp;Humidity;BMP_temperature;BMP_pressure;BME280_temperature;BME280_humidity;BME280_pressure;Samples;Min_cycle;Max_cycle;Signal;HPM_P1;HPM_P2
2023/06/25 00:00:36;;;;;;;10.63;9.73;;;19.60;99.90;;;;;;5073438;28;20811;-62
2023/06/25 00:03:03;;;;;;;10.80;9.80;;;19.60;99.90;;;;;;5073197;28;20815;-63
2023/06/25 00:05:29;;;;;;;10.57;9.53;;;19.60;99.90;;;;;;5073517;28;20446;-62
2023/06/25 00:07:58;;;;;;;10.40;9.40;;;19.50;99.90;;;;;;5073018;28;21006;-63
2023/06/25 00:10:25;;;;;;;12.17;10.20;;;19.50;99.90;;;;;;5073277;28;20448;-62
2023/06/25 00:12:51;;;;;;;11.33;10.30;;;19.50;99.90;;;;;;5073158;28;20465;-61
2023/06/25 00:15:18;;;;;;;10.83;9.73;;;19.40;99.90;;;;;;5072952;28;20500;-61
2023/06/25 00:17:47;;;;;;;11.50;10.37;;;19.40;99.90;;;;;;5073126;28;20494;-62
2023/06/25 00:20:15;;;;;;;11.20;10.20;;;19.40;99.90;;;;;;5073736;28;20504;-61
2023/06/25 00:22:42;;;;;;;11.53;10.53;;;19.40;99.90;;;;;;5073492;28;20458;-62
2023/06/25 00:25:11;;;;;;;14.70;9.73;;;19.30;99.90;;;;;;5073435;28;20481;-62
2023/06/25 00:27:38;;;;;;;11.57;10.57;;;19.30;99.90;;;;;;5075380;28;20486;-62
2023/06/25 00:30:07;;;;;;;11.40;10.37;;;19.30;99.90;;;;;;5077540;28;20504;-61
2023/06/25 00:32:34;;;;;;;12.53;11.33;;;19.30;99.90;;;;;;5077047;28;21008;-61
2023/06/25 00:35:02;;;;;;;11.97;10.90;;;19.20;99.90;;;;;;5077446;28;20453;-61
2023/06/25 00:37:28;;;;;;;16.07;12.60;;;19.20;99.90;;;;;;5077411;28;20522;-61
2023/06/25 00:39:55;;;;;;;10.70;9.70;;;19.20;99.90;;;;;;5076976;28;20950;-62
2023/06/25 00:42:23;;;;;;;16.23;13.17;;;19.20;99.90;;;;;;5077175;28;20451;-60
2023/06/25 00:44:50;;;;;;;12.80;11.23;;;19.10;99.90;;;;;;5077051;28;20443;-62
2023/06/25 00:47:18;;;;;;;11.80;10.70;;;19.20;99.90;;;;;;5076934;28;20499;-61
2023/06/25 00:49:46;;;;;;;12.17;11.07;;;19.10;99.90;;;;;;5076900;28;20454;-61
2023/06/25 00:52:15;;;;;;;14.30;12.10;;;19.10;99.90;;;;;;5076648;28;20443;-62
2023/06/25 00:54:43;;;;;;;13.80;12.07;;;19.10;99.90;;;;;;5076369;28;20446;-62
2023/06/25 00:57:11;;;;;;;12.50;11.03;;;19.10;99.90;;;;;;5076270;28;20494;-62
2023/06/25 00:59:43;;;;;;;12.13;11.07;;;19.10;99.90;;;;;;5076413;28;20450;-62
2023/06/25 01:02:18;;;;;;;11.50;10.50;;;19.10;99.90;;;;;;5076622;28;20437;-61
2023/06/25 01:04:51;;;;;;;12.13;11.00;;;19.00;99.90;;;;;;5082108;28;20882;-62
2023/06/25 01:07:22;;;;;;;11.40;10.27;;;19.00;99.90;;;;;;5080698;28;20466;-62
2023/06/25 01:09:51;;;;;;;11.13;10.10;;;19.00;99.90;;;;;;5076199;28;20440;-60
2023/06/25 01:12:17;;;;;;;10.77;9.77;;;18.90;99.90;;;;;;5075953;28;20945;-61
2023/06/25 01:14:49;;;;;;;10.30;9.33;;;18.90;99.90;;;;;;5075798;28;20812;-61
2023/06/25 01:17:16;;;;;;;13.13;11.83;;;18.80;99.90;;;;;;5076022;28;20913;-62
2023/06/25 01:19:43;;;;;;;11.83;10.73;;;18.80;99.90;;;;;;5076613;28;20454;-62
2023/06/25 01:22:11;;;;;;;11.37;10.37;;;18.80;99.90;;;;;;5075661;28;20451;-61
2023/06/25 01:24:42;;;;;;;14.70;8.77;;;18.80;99.90;;;;;;5075817;28;20451;-62
2023/06/25 01:27:09;;;;;;;11.23;10.10;;;18.70;99.90;;;;;;5075808;28;20463;-62
2023/06/25 01:29:37;;;;;;;10.50;9.60;;;18.70;99.90;;;;;;5075922;28;20446;-62
2023/06/25 01:32:06;;;;;;;11.10;10.00;;;18.70;99.90;;;;;;5075862;28;20789;-61
2023/06/25 01:34:32;;;;;;;10.13;9.23;;;18.70;99.90;;;;;;5075813;28;20538;-61
2023/06/25 01:36:59;;;;;;;10.70;9.60;;;18.60;99.90;;;;;;5075357;28;20489;-62
2023/06/25 01:39:26;;;;;;;10.13;9.10;;;18.60;99.90;;;;;;5074781;28;20442;-61
2023/06/25 01:41:54;;;;;;;10.93;9.83;;;18.60;99.90;;;;;;5075377;28;20451;-61
2023/06/25 01:44:28;;;;;;;10.80;9.80;;;18.50;99.90;;;;;;5075993;28;20486;-62
2023/06/25 01:46:55;;;;;;;9.97;8.87;;;18.50;99.90;;;;;;5075565;28;20467;-60
2023/06/25 01:49:22;;;;;;;11.03;10.00;;;18.50;99.90;;;;;;5075274;28;20447;-62
2023/06/25 01:51:49;;;;;;;9.57;8.70;;;18.50;99.90;;;;;;5075516;28;20447;-62
2023/06/25 01:54:15;;;;;;;10.10;8.80;;;18.40;99.90;;;;;;5075493;28;20460;-60
2023/06/25 01:56:42;;;;;;;10.60;9.60;;;18.40;99.90;;;;;;5075817;28;20483;-62
2023/06/25 01:59:11;;;;;;;11.63;9.90;;;18.40;99.90;;;;;;5075522;28;20445;-61
2023/06/25 02:01:37;;;;;;;11.10;10.10;;;18.40;99.90;;;;;;5075376;28;20526;-61
2023/06/25 02:04:04;;;;;;;10.97;9.97;;;18.40;99.90;;;;;;5075292;28;20443;-62
2023/06/25 02:06:31;;;;;;;11.00;9.90;;;18.30;99.90;;;;;;5074909;28;20463;-61
2023/06/25 02:08:58;;;;;;;10.30;9.30;;;18.30;99.90;;;;;;5074978;28;20945;-61
2023/06/25 02:11:25;;;;;;;10.10;9.20;;;18.30;99.90;;;;;;5075618;28;20438;-62
2023/06/25 02:13:51;;;;;;;10.93;9.57;;;18.20;99.90;;;;;;5075112;28;20451;-61
2023/06/25 02:16:20;;;;;;;10.63;9.70;;;18.30;99.90;;;;;;5074908;28;20447;-61
2023/06/25 02:18:46;;;;;;;11.50;10.40;;;18.30;99.90;;;;;;5074909;28;20479;-61
2023/06/25 02:21:13;;;;;;;11.33;10.13;;;18.30;99.90;;;;;;5074665;28;20916;-61
2023/06/25 02:23:40;;;;;;;12.20;10.43;;;18.20;99.90;;;;;;5074966;28;20443;-60
2023/06/25 02:26:07;;;;;;;10.77;9.77;;;18.20;99.90;;;;;;5074891;28;20451;-59
2023/06/25 02:28:33;;;;;;;10.80;9.80;;;18.20;99.90;;;;;;5074733;28;20455;-61
2023/06/25 02:31:00;;;;;;;10.47;9.33;;;18.20;99.90;;;;;;5074859;28;20443;-59
2023/06/25 02:33:28;;;;;;;12.33;9.53;;;18.20;99.90;;;;;;5075011;28;20444;-61
2023/06/25 02:35:55;;;;;;;9.73;8.83;;;18.10;99.90;;;;;;5074878;28;20443;-61
2023/06/25 02:38:22;;;;;;;11.33;9.80;;;18.10;99.90;;;;;;5074969;28;20491;-62
2023/06/25 02:40:49;;;;;;;12.60;10.47;;;18.10;99.90;;;;;;5075463;28;20443;-61
2023/06/25 02:43:16;;;;;;;10.17;9.17;;;18.10;99.90;;;;;;5075202;28;20454;-62
2023/06/25 02:45:42;;;;;;;9.77;8.87;;;18.10;99.90;;;;;;5074686;28;20454;-62
2023/06/25 02:48:09;;;;;;;10.00;9.10;;;18.10;99.90;;;;;;5074563;28;20499;-62
2023/06/25 02:50:37;;;;;;;10.50;9.37;;;18.10;99.90;;;;;;5073321;28;20443;-62
2023/06/25 02:53:04;;;;;;;10.90;9.87;;;18.00;99.90;;;;;;5074461;28;20443;-62
2023/06/25 02:55:31;;;;;;;11.57;10.23;;;18.00;99.90;;;;;;5074294;28;20822;-62
2023/06/25 02:57:57;;;;;;;10.90;9.90;;;18.00;99.90;;;;;;5073742;28;20859;-62
2023/06/25 03:00:24;;;;;;;11.20;10.10;;;18.00;99.90;;;;;;5084266;28;20515;-61
2023/06/25 03:02:51;;;;;;;10.37;9.33;;;18.00;99.90;;;;;;5074329;28;20443;-61
2023/06/25 03:05:18;;;;;;;14.40;13.00;;;18.00;99.90;;;;;;5073851;28;20815;-60
2023/06/25 03:07:53;;;;;;;11.60;10.40;;;18.00;99.90;;;;;;5073901;28;20466;-61
2023/06/25 03:10:21;;;;;;;12.23;9.50;;;18.00;99.90;;;;;;5073885;28;20443;-61
2023/06/25 03:12:47;;;;;;;9.47;8.57;;;18.00;99.90;;;;;;5073949;28;20443;-61
2023/06/25 03:15:14;;;;;;;11.80;10.60;;;18.00;99.90;;;;;;5074452;28;20454;-61
2023/06/25 03:17:41;;;;;;;10.10;9.13;;;18.00;99.90;;;;;;5073716;28;20853;-62
2023/06/25 03:20:09;;;;;;;11.20;10.00;;;18.00;99.90;;;;;;5073711;28;20443;-62
2023/06/25 03:22:36;;;;;;;10.40;8.73;;;18.00;99.90;;;;;;5073713;28;20447;-60
2023/06/25 03:25:04;;;;;;;10.80;9.73;;;18.00;99.90;;;;;;5073647;28;20455;-62
2023/06/25 03:27:33;;;;;;;10.40;9.50;;;18.00;99.90;;;;;;5073473;28;20467;-61
2023/06/25 03:30:00;;;;;;;10.90;9.80;;;18.00;99.90;;;;;;5073613;28;20443;-60
2023/06/25 03:32:27;;;;;;;8.97;8.20;;;18.00;99.90;;;;;;5073305;28;20450;-61
2023/06/25 03:34:55;;;;;;;10.03;8.80;;;18.10;99.90;;;;;;5073489;28;20557;-61
2023/06/25 03:37:22;;;;;;;11.80;9.20;;;18.10;99.90;;;;;;5072847;28;20875;-62
2023/06/25 03:39:49;;;;;;;8.63;7.83;;;18.10;99.90;;;;;;5073379;28;20536;-62
2023/06/25 03:42:17;;;;;;;11.60;10.07;;;18.20;99.90;;;;;;5072925;28;21026;-62
2023/06/25 03:44:47;;;;;;;10.20;9.20;;;18.20;99.90;;;;;;5073169;28;20881;-61
2023/06/25 03:47:14;;;;;;;10.60;9.50;;;18.30;99.90;;;;;;5073162;28;20463;-61
2023/06/25 03:49:41;;;;;;;10.70;9.60;;;18.30;99.90;;;;;;5073136;28;20458;-62
2023/06/25 03:52:08;;;;;;;9.47;8.57;;;18.40;99.90;;;;;;5073211;28;20448;-62
2023/06/25 03:54:35;;;;;;;10.00;8.87;;;18.50;99.90;;;;;;5073713;28;20443;-62
2023/06/25 03:57:02;;;;;;;9.50;8.60;;;18.70;99.90;;;;;;5094465;22;20713;-59
2023/06/25 03:59:31;;;;;;;9.37;8.47;;;19.00;99.90;;;;;;5052973;28;20480;-61
2023/06/25 04:01:58;;;;;;;14.00;8.10;;;19.50;99.90;;;;;;5052457;28;20441;-60
2023/06/25 04:04:25;;;;;;;8.80;8.00;;;19.80;99.90;;;;;;5053010;28;20447;-60
2023/06/25 04:06:51;;;;;;;8.60;7.73;;;20.20;99.90;;;;;;5053058;28;20538;-61
2023/06/25 04:11:52;;;;;;;9.07;6.50;;;20.70;99.90;;;;;;5091268;27;20952;-59
2023/06/25 04:14:19;;;;;;;9.17;6.90;;;21.10;99.90;;;;;;5090221;28;20827;-59
2023/06/25 04:16:46;;;;;;;7.13;6.43;;;21.20;99.90;;;;;;5090411;28;20455;-59
2023/06/25 04:19:12;;;;;;;8.90;7.27;;;21.50;99.90;;;;;;5090370;28;20445;-59
2023/06/25 04:21:39;;;;;;;7.90;7.20;;;21.60;99.90;;;;;;5090342;28;20441;-58
2023/06/25 04:24:07;;;;;;;8.00;6.53;;;21.80;99.90;;;;;;5090478;28;20441;-59
2023/06/25 04:26:33;;;;;;;7.87;7.07;;;21.90;99.90;;;;;;5090619;28;20446;-60
2023/06/25 04:29:02;;;;;;;10.80;7.70;;;22.10;99.90;;;;;;5089862;28;20523;-60
2023/06/25 04:31:29;;;;;;;8.80;7.90;;;22.30;99.90;;;;;;5090151;28;20482;-60
2023/06/25 04:33:56;;;;;;;9.87;8.87;;;22.50;99.90;;;;;;5090647;28;20469;-58
2023/06/25 04:36:23;;;;;;;11.40;9.93;;;22.70;99.90;;;;;;5089856;28;20937;-60
2023/06/25 04:38:49;;;;;;;8.60;7.80;;;22.80;98.90;;;;;;5090141;28;20834;-59
2023/06/25 04:41:16;;;;;;;10.47;9.50;;;23.00;97.90;;;;;;5090162;28;20973;-59
2023/06/25 04:43:43;;;;;;;8.83;8.03;;;23.10;97.00;;;;;;5090151;28;20960;-60
2023/06/25 04:46:11;;;;;;;6.57;5.90;;;23.20;96.10;;;;;;5090278;28;20443;-60
2023/06/25 04:48:38;;;;;;;9.50;8.60;;;23.30;95.00;;;;;;5089750;28;20473;-59
2023/06/25 04:51:04;;;;;;;8.20;7.40;;;23.20;94.40;;;;;;5089682;28;21039;-60
2023/06/25 04:53:31;;;;;;;7.80;7.07;;;23.10;94.40;;;;;;5090102;28;20447;-60
2023/06/25 04:55:58;;;;;;;7.00;6.37;;;23.20;94.30;;;;;;5090058;28;20441;-60
2023/06/25 04:58:25;;;;;;;8.70;7.77;;;23.30;93.50;;;;;;5089818;28;20491;-60
2023/06/25 05:00:51;;;;;;;6.30;5.70;;;23.50;92.60;;;;;;5089393;28;20436;-59
2023/06/25 05:03:19;;;;;;;7.43;6.67;;;23.70;91.60;;;;;;5089709;28;20438;-59
2023/06/25 05:05:46;;;;;;;6.10;5.50;;;24.00;90.40;;;;;;5089833;28;20450;-60
2023/06/25 05:08:13;;;;;;;6.93;6.23;;;24.20;88.40;;;;;;5089741;28;20464;-60
2023/06/25 05:10:42;;;;;;;6.80;6.10;;;24.30;85.90;;;;;;5088976;28;20880;-59
2023/06/25 05:13:10;;;;;;;6.67;6.07;;;24.50;84.10;;;;;;5090246;28;20436;-59
2023/06/25 05:15:39;;;;;;;6.97;5.70;;;24.70;82.20;;;;;;5089627;28;20443;-59
2023/06/25 05:18:06;;;;;;;7.97;6.57;;;24.80;80.60;;;;;;5089215;28;20474;-60
2023/06/25 05:20:35;;;;;;;6.77;6.17;;;25.00;79.10;;;;;;5089538;28;20447;-60
2023/06/25 05:23:03;;;;;;;6.00;5.40;;;25.10;77.40;;;;;;5077609;28;20951;-59
2023/06/25 05:25:30;;;;;;;6.33;5.40;;;25.30;75.60;;;;;;5075979;28;20442;-60
2023/06/25 05:27:57;;;;;;;6.00;5.40;;;25.40;74.30;;;;;;5075760;28;20472;-59
2023/06/25 05:30:24;;;;;;;6.20;5.60;;;25.50;73.00;;;;;;5075924;28;20488;-58
2023/06/25 05:32:51;;;;;;;6.33;5.83;;;25.60;72.10;;;;;;5076101;28;20444;-59
2023/06/25 05:35:17;;;;;;;6.03;4.97;;;25.70;71.30;;;;;;5075995;28;20446;-59
2023/06/25 05:37:46;;;;;;;6.30;5.27;;;25.80;70.30;;;;;;5075790;28;20551;-59
2023/06/25 05:40:13;;;;;;;5.97;5.40;;;26.00;69.40;;;;;;5075949;28;20802;-59
2023/06/25 05:42:40;;;;;;;5.90;5.27;;;26.00;68.40;;;;;;5075634;28;20452;-59
2023/06/25 05:45:08;;;;;;;5.10;4.47;;;26.20;67.60;;;;;;5076266;28;20449;-59
2023/06/25 05:47:35;;;;;;;5.87;4.90;;;26.30;66.80;;;;;;5075751;28;20490;-59
2023/06/25 05:50:03;;;;;;;6.10;4.97;;;26.30;67.00;;;;;;5075662;28;20446;-57
2023/06/25 05:52:29;;;;;;;5.97;5.47;;;26.20;66.10;;;;;;5075835;28;20440;-59
2023/06/25 05:54:58;;;;;;;7.33;5.23;;;26.20;65.80;;;;;;5075646;28;20458;-59
2023/06/25 05:57:25;;;;;;;5.50;4.60;;;26.00;65.80;;;;;;5075392;28;20552;-61
2023/06/25 05:59:52;;;;;;;5.20;4.70;;;25.90;66.20;;;;;;5075854;28;20490;-59
2023/06/25 06:02:19;;;;;;;5.20;4.67;;;25.70;66.70;;;;;;5075575;28;20446;-60
2023/06/25 06:04:45;;;;;;;5.83;5.13;;;25.80;67.10;;;;;;5075333;28;20446;-59
2023/06/25 06:07:12;;;;;;;5.73;4.83;;;26.00;66.40;;;;;;5075974;28;20475;-59
2023/06/25 06:09:39;;;;;;;5.57;5.07;;;26.20;65.40;;;;;;5076147;28;20444;-58
2023/06/25 06:12:08;;;;;;;5.20;4.70;;;26.40;64.70;;;;;;5078321;28;20464;-59
2023/06/25 06:14:37;;;;;;;13.10;6.80;;;26.50;64.00;;;;;;5077642;28;20445;-60
2023/06/25 06:17:04;;;;;;;13.10;6.97;;;26.40;63.40;;;;;;5075736;28;20465;-60
2023/06/25 06:19:31;;;;;;;8.33;6.43;;;26.40;63.40;;;;;;5076255;28;20449;-60
2023/06/25 06:21:57;;;;;;;8.50;5.77;;;26.30;63.50;;;;;;5075744;28;20437;-59
2023/06/25 06:24:24;;;;;;;8.57;6.20;;;26.20;63.50;;;;;;5076242;28;20454;-60
2023/06/25 06:26:51;;;;;;;5.20;4.70;;;26.20;63.70;;;;;;5075828;28;20464;-60
2023/06/25 06:29:19;;;;;;;7.43;5.03;;;26.20;63.80;;;;;;5075987;28;20490;-60
2023/06/25 06:31:46;;;;;;;7.23;5.43;;;26.10;64.40;;;;;;5075732;28;20500;-61
2023/06/25 06:34:13;;;;;;;5.70;5.20;;;26.10;63.80;;;;;;5074524;28;20446;-58
2023/06/25 06:36:40;;;;;;;6.03;5.43;;;26.10;63.60;;;;;;5076017;28;20448;-59
2023/06/25 06:39:07;;;;;;;5.37;4.87;;;26.10;63.70;;;;;;5075296;28;21056;-60
2023/06/25 06:41:34;;;;;;;5.53;4.63;;;26.10;63.60;;;;;;5075532;28;20442;-59
2023/06/25 06:44:12;;;;;;;4.70;4.30;;;26.00;63.60;;;;;;5076383;28;20469;-58
2023/06/25 06:46:40;;;;;;;7.83;5.57;;;25.90;63.80;;;;;;5075505;28;20785;-57
2023/06/25 06:49:07;;;;;;;6.20;5.60;;;25.90;64.00;;;;;;5075100;28;20453;-59
2023/06/25 06:51:34;;;;;;;6.70;4.67;;;25.80;64.10;;;;;;5075386;28;20488;-60
2023/06/25 06:54:01;;;;;;;5.37;4.87;;;25.80;64.10;;;;;;5074756;28;20806;-59
2023/06/25 06:56:27;;;;;;;5.00;4.60;;;25.90;64.20;;;;;;5074772;28;20942;-60
2023/06/25 06:58:54;;;;;;;5.63;5.23;;;25.90;64.10;;;;;;5074954;28;20543;-59
2023/06/25 07:01:21;;;;;;;7.90;5.97;;;25.80;64.10;;;;;;5074743;28;20441;-60
2023/06/25 07:03:49;;;;;;;5.53;5.03;;;25.90;64.00;;;;;;5074463;28;20572;-59
2023/06/25 07:06:16;;;;;;;5.13;4.57;;;25.90;63.80;;;;;;5074746;28;20449;-60
2023/06/25 07:08:42;;;;;;;6.53;5.07;;;26.00;64.50;;;;;;5075073;28;20472;-58
2023/06/25 07:11:09;;;;;;;6.90;5.57;;;25.90;63.50;;;;;;5074608;28;20490;-60
2023/06/25 07:13:36;;;;;;;5.10;4.50;;;25.90;63.80;;;;;;5075308;28;20524;-60
2023/06/25 07:16:03;;;;;;;5.33;4.83;;;26.00;63.70;;;;;;5074946;28;20432;-60
2023/06/25 07:18:30;;;;;;;6.07;5.53;;;26.20;63.20;;;;;;5074822;28;20554;-59
2023/06/25 07:20:58;;;;;;;5.50;5.00;;;26.30;63.00;;;;;;5074924;28;20457;-59
2023/06/25 07:23:24;;;;;;;6.17;4.93;;;26.40;62.40;;;;;;5074345;28;20456;-59
2023/06/25 07:25:51;;;;;;;5.27;4.77;;;26.50;61.90;;;;;;5074256;28;20450;-61
2023/06/25 07:28:18;;;;;;;6.90;5.00;;;26.70;61.40;;;;;;5075699;28;20469;-61
2023/06/25 07:30:45;;;;;;;5.80;5.30;;;26.70;61.00;;;;;;5076611;28;20511;-59
2023/06/25 07:33:12;;;;;;;6.20;5.60;;;26.70;61.00;;;;;;5075514;28;20498;-60
2023/06/25 07:35:39;;;;;;;4.60;4.20;;;26.80;60.60;;;;;;5074541;28;20462;-60
2023/06/25 07:38:07;;;;;;;4.90;4.50;;;26.70;60.30;;;;;;5075507;28;20482;-58
2023/06/25 07:40:34;;;;;;;5.20;4.80;;;26.80;60.20;;;;;;5075613;28;20484;-60
2023/06/25 07:43:01;;;;;;;6.70;5.37;;;26.80;60.20;;;;;;5075481;28;20554;-60
2023/06/25 07:45:27;;;;;;;5.73;5.23;;;26.80;60.00;;;;;;5074850;28;20445;-59
2023/06/25 07:47:54;;;;;;;5.80;5.30;;;27.00;59.70;;;;;;5074800;28;20465;-60
2023/06/25 07:50:21;;;;;;;9.13;5.07;;;27.10;59.20;;;;;;5074080;28;20440;-59
2023/06/25 07:52:48;;;;;;;4.63;4.03;;;27.20;58.70;;;;;;5074144;28;20486;-61
2023/06/25 07:55:16;;;;;;;4.70;4.30;;;27.40;58.20;;;;;;5073064;28;20446;-58
2023/06/25 07:57:43;;;;;;;5.00;4.60;;;27.50;57.80;;;;;;5072607;28;20467;-59
2023/06/25 08:00:11;;;;;;;4.97;4.50;;;27.60;57.60;;;;;;5072905;28;20544;-58
2023/06/25 08:02:38;;;;;;;5.60;4.40;;;27.70;57.40;;;;;;5073041;28;20467;-57
2023/06/25 08:05:05;;;;;;;5.30;4.77;;;27.70;56.90;;;;;;5074055;28;20454;-60
2023/06/25 08:07:32;;;;;;;5.30;4.80;;;27.50;57.00;;;;;;5073969;28;20471;-57
2023/06/25 08:09:58;;;;;;;5.27;4.80;;;27.30;57.50;;;;;;5073826;28;20453;-58
2023/06/25 08:12:26;;;;;;;5.00;4.60;;;27.30;57.70;;;;;;5073365;28;20463;-58
2023/06/25 08:14:53;;;;;;;5.53;5.00;;;27.40;57.50;;;;;;5073475;28;20456;-59
2023/06/25 08:17:20;;;;;;;5.10;4.60;;;27.50;57.40;;;;;;5073338;28;20466;-57
2023/06/25 08:19:47;;;;;;;4.77;4.30;;;27.70;57.10;;;;;;5073783;28;20453;-58
2023/06/25 08:22:13;;;;;;;5.20;4.67;;;27.80;56.20;;;;;;5073572;28;20437;-58
2023/06/25 08:24:40;;;;;;;5.03;4.53;;;27.80;55.80;;;;;;5073721;28;20443;-58
2023/06/25 08:27:07;;;;;;;5.83;5.20;;;27.90;55.50;;;;;;5073942;28;20477;-60
2023/06/25 08:29:35;;;;;;;4.67;4.27;;;28.10;55.00;;;;;;5073507;28;20820;-60
2023/06/25 08:32:02;;;;;;;5.07;4.57;;;28.20;54.50;;;;;;5073319;28;20482;-62
2023/06/25 08:34:29;;;;;;;5.00;4.50;;;28.10;54.10;;;;;;5073040;28;20447;-58
2023/06/25 08:36:56;;;;;;;6.93;4.53;;;28.00;54.30;;;;;;5073301;28;20480;-59
2023/06/25 08:39:23;;;;;;;5.50;5.00;;;27.90;53.80;;;;;;5073494;28;20923;-59
2023/06/25 08:41:50;;;;;;;5.23;4.23;;;27.80;52.90;;;;;;5073531;28;20446;-60
2023/06/25 08:44:17;;;;;;;5.80;5.27;;;27.80;52.70;;;;;;5073475;28;20903;-60
2023/06/25 08:46:48;;;;;;;5.63;5.13;;;27.90;52.70;;;;;;5073434;28;20491;-62
2023/06/25 08:49:16;;;;;;;5.30;4.40;;;28.20;52.00;;;;;;5072885;28;20430;-60
2023/06/25 08:51:43;;;;;;;5.50;5.00;;;28.50;51.00;;;;;;5073015;28;20771;-61
2023/06/25 08:54:10;;;;;;;7.13;4.80;;;28.60;50.20;;;;;;5073120;28;20443;-59
2023/06/25 08:56:37;;;;;;;4.77;4.37;;;28.70;49.50;;;;;;5073058;28;20448;-58
2023/06/25 08:59:04;;;;;;;4.80;4.40;;;28.70;48.80;;;;;;5076071;28;20480;-60
2023/06/25 09:01:30;;;;;;;5.10;4.70;;;28.60;48.70;;;;;;5076025;28;20441;-60
2023/06/25 09:03:59;;;;;;;5.13;4.57;;;28.40;48.70;;;;;;5076415;28;20450;-60
2023/06/25 09:06:26;;;;;;;5.37;4.97;;;28.30;48.80;;;;;;5076041;28;20456;-61
2023/06/25 09:08:53;;;;;;;5.00;4.50;;;28.40;49.20;;;;;;5076304;28;20883;-58
2023/06/25 09:11:20;;;;;;;5.73;4.80;;;28.50;49.30;;;;;;5076009;28;20496;-59
2023/06/25 09:13:46;;;;;;;7.07;4.87;;;28.70;48.90;;;;;;5076353;28;20535;-61
2023/06/25 09:16:13;;;;;;;5.37;4.87;;;28.80;48.70;;;;;;5075924;28;20448;-60
2023/06/25 09:18:40;;;;;;;5.23;4.73;;;28.80;48.90;;;;;;5075383;28;20460;-61
2023/06/25 09:21:10;;;;;;;5.40;4.90;;;28.80;49.30;;;;;;5076194;28;20441;-60
2023/06/25 09:23:37;;;;;;;6.57;4.57;;;28.90;49.80;;;;;;5075940;28;20471;-60
2023/06/25 09:26:06;;;;;;;5.37;4.97;;;29.10;48.80;;;;;;5075891;28;20448;-60
2023/06/25 09:28:32;;;;;;;4.90;4.50;;;29.30;48.50;;;;;;5075863;28;20868;-60
2023/06/25 09:31:00;;;;;;;5.20;4.70;;;29.40;49.00;;;;;;5075810;28;20445;-60
2023/06/25 09:33:33;;;;;;;5.23;4.73;;;29.40;48.30;;;;;;5076039;28;20481;-60
2023/06/25 09:36:01;;;;;;;5.43;4.93;;;29.40;48.00;;;;;;5076706;28;20429;-61
2023/06/25 09:38:29;;;;;;;5.20;4.80;;;29.50;47.90;;;;;;5075997;28;20467;-61
2023/06/25 09:40:59;;;;;;;5.30;4.80;;;29.50;47.60;;;;;;5075591;28;20826;-61
2023/06/25 09:43:26;;;;;;;4.97;4.50;;;29.50;46.80;;;;;;5075391;28;20938;-61
2023/06/25 09:45:54;;;;;;;5.13;4.73;;;29.50;46.50;;;;;;5075742;28;20440;-60
2023/06/25 09:48:24;;;;;;;5.60;5.10;;;29.50;46.30;;;;;;5075618;28;20460;-62
2023/06/25 09:50:51;;;;;;;5.27;4.77;;;29.60;46.20;;;;;;5075697;28;20453;-61
2023/06/25 09:53:21;;;;;;;5.07;4.57;;;29.70;45.90;;;;;;5075272;28;20948;-60
2023/06/25 09:55:49;;;;;;;5.60;5.20;;;29.80;45.30;;;;;;5075861;28;20449;-61
2023/06/25 09:58:18;;;;;;;6.10;4.97;;;29.80;45.40;;;;;;5100815;22;20497;-59
2023/06/25 10:00:45;;;;;;;5.73;5.13;;;29.70;45.80;;;;;;5056131;28;20992;-59
2023/06/25 10:03:13;;;;;;;6.10;5.50;;;29.60;46.30;;;;;;5056032;28;20450;-57
2023/06/25 10:05:41;;;;;;;5.53;5.03;;;29.60;46.50;;;;;;5056347;28;20443;-58
2023/06/25 10:08:07;;;;;;;7.77;5.03;;;29.70;46.30;;;;;;5055896;28;20470;-60
2023/06/25 10:10:34;;;;;;;5.23;4.83;;;29.70;45.80;;;;;;5055767;28;20449;-59
2023/06/25 10:13:05;;;;;;;5.47;4.97;;;29.70;45.80;;;;;;5056209;28;20490;-59
2023/06/25 10:15:35;;;;;;;4.70;4.30;;;29.80;45.80;;;;;;5055524;28;20434;-58
2023/06/25 10:18:03;;;;;;;5.07;4.67;;;29.90;45.50;;;;;;5055448;28;20852;-59
2023/06/25 10:20:31;;;;;;;6.20;4.77;;;29.90;45.20;;;;;;5055282;28;20439;-60
2023/06/25 10:23:09;;;;;;;4.90;4.50;;;29.80;45.10;;;;;;5055368;28;20452;-59
2023/06/25 10:25:36;;;;;;;5.43;5.03;;;29.80;45.10;;;;;;5055410;28;20535;-59
2023/06/25 10:28:08;;;;;;;4.80;4.40;;;30.00;44.90;;;;;;5055867;28;20471;-59
2023/06/25 10:30:39;;;;;;;5.50;5.10;;;30.10;44.40;;;;;;5055726;28;20435;-60
2023/06/25 10:33:07;;;;;;;5.43;4.93;;;30.30;44.10;;;;;;5054994;28;21007;-59
2023/06/25 10:35:40;;;;;;;5.97;4.90;;;30.40;43.80;;;;;;5055437;28;20447;-60
2023/06/25 10:38:07;;;;;;;5.30;4.90;;;30.40;43.70;;;;;;5055298;28;20986;-59
2023/06/25 10:40:34;;;;;;;5.07;4.67;;;30.30;43.80;;;;;;5055051;28;20534;-59
2023/06/25 10:43:02;;;;;;;5.33;4.93;;;30.20;43.30;;;;;;5055774;28;20538;-59
2023/06/25 10:45:30;;;;;;;4.73;4.33;;;30.00;43.40;;;;;;5055750;28;20477;-58
2023/06/25 10:48:05;;;;;;;4.73;4.43;;;30.00;43.00;;;;;;5055257;28;20482;-60
2023/06/25 10:50:32;;;;;;;5.93;5.43;;;29.90;42.60;;;;;;5056485;28;20495;-61
2023/06/25 10:52:59;;;;;;;5.00;4.60;;;30.10;42.80;;;;;;5056651;28;20489;-60
2023/06/25 10:55:26;;;;;;;5.43;4.97;;;30.30;42.60;;;;;;5056431;28;21008;-60
2023/06/25 10:57:54;;;;;;;5.80;4.73;;;30.40;42.60;;;;;;5055347;28;21084;-61
2023/06/25 11:00:23;;;;;;;5.07;4.57;;;30.60;42.50;;;;;;5055095;28;20823;-60
2023/06/25 11:02:52;;;;;;;5.67;5.17;;;30.80;42.20;;;;;;5056513;28;20438;-60
2023/06/25 11:05:20;;;;;;;5.70;5.20;;;30.80;41.70;;;;;;5055380;28;20502;-59
2023/06/25 11:07:52;;;;;;;5.60;5.20;;;30.80;41.70;;;;;;5054950;28;21044;-60
2023/06/25 11:10:19;;;;;;;6.93;5.60;;;31.00;41.60;;;;;;5054683;28;20922;-60
2023/06/25 11:12:46;;;;;;;5.50;5.00;;;31.00;41.00;;;;;;5055068;28;20490;-60
2023/06/25 11:15:12;;;;;;;4.90;4.50;;;31.00;40.80;;;;;;5056040;28;20467;-60
2023/06/25 11:17:39;;;;;;;5.83;5.33;;;31.10;41.00;;;;;;5055051;28;20470;-59
2023/06/25 11:20:08;;;;;;;5.70;5.20;;;31.10;40.90;;;;;;5054998;28;20455;-59
2023/06/25 11:22:41;;;;;;;5.90;5.10;;;31.10;40.60;;;;;;5055694;28;20474;-59
2023/06/25 11:25:09;;;;;;;5.73;5.23;;;31.20;40.40;;;;;;5057250;28;20453;-58
2023/06/25 11:27:37;;;;;;;5.33;4.93;;;31.40;40.30;;;;;;5055795;28;20466;-58
2023/06/25 11:30:05;;;;;;;5.53;5.00;;;31.50;39.80;;;;;;5055308;28;20458;-57
2023/06/25 11:32:32;;;;;;;5.93;5.43;;;31.60;39.60;;;;;;5055919;28;20530;-60
2023/06/25 11:35:00;;;;;;;5.80;5.30;;;31.60;39.40;;;;;;5056216;28;20616;-61
2023/06/25 11:37:28;;;;;;;5.73;5.23;;;31.80;39.70;;;;;;5055362;28;20447;-60
2023/06/25 11:39:55;;;;;;;4.80;4.40;;;32.00;39.80;;;;;;5054230;28;20457;-59
2023/06/25 11:42:23;;;;;;;5.90;5.40;;;31.90;39.70;;;;;;5055105;28;20445;-59
2023/06/25 11:44:59;;;;;;;5.17;4.77;;;31.70;40.00;;;;;;5055632;28;20445;-60
2023/06/25 11:47:26;;;;;;;5.03;4.63;;;31.70;40.60;;;;;;5056106;28;20438;-60
2023/06/25 11:49:54;;;;;;;6.80;6.20;;;31.60;40.90;;;;;;5055033;28;20452;-59
2023/06/25 11:52:21;;;;;;;5.23;4.83;;;31.40;41.10;;;;;;5054779;28;20505;-60
2023/06/25 11:54:50;;;;;;;4.70;4.30;;;31.20;41.70;;;;;;5055014;28;20446;-60
2023/06/25 11:57:18;;;;;;;5.30;4.90;;;31.20;41.80;;;;;;5054865;28;20790;-60
2023/06/25 11:59:45;;;;;;;6.20;5.60;;;31.60;41.50;;;;;;5054727;28;20439;-60
2023/06/25 12:02:12;;;;;;;6.63;4.90;;;32.10;40.80;;;;;;5055855;28;20445;-57
2023/06/25 12:04:39;;;;;;;5.70;5.23;;;32.70;39.70;;;;;;5055909;28;20537;-62
2023/06/25 12:07:07;;;;;;;5.63;5.20;;;33.10;38.70;;;;;;5055527;28;20443;-63
2023/06/25 12:09:33;;;;;;;5.47;4.93;;;33.40;38.00;;;;;;5055427;28;20832;-62
2023/06/25 12:12:02;;;;;;;5.00;4.60;;;34.00;37.50;;;;;;5055820;28;20450;-62
2023/06/25 12:14:28;;;;;;;5.80;5.30;;;34.60;37.10;;;;;;5057254;28;20444;-62
2023/06/25 12:16:55;;;;;;;5.23;4.83;;;35.30;36.70;;;;;;5058257;28;20946;-61
2023/06/25 12:19:22;;;;;;;5.20;4.80;;;35.90;36.00;;;;;;5056884;28;20460;-61
2023/06/25 12:21:49;;;;;;;5.53;5.10;;;36.50;35.30;;;;;;5057758;28;20451;-61
2023/06/25 12:24:16;;;;;;;5.37;4.90;;;36.80;34.80;;;;;;5055970;28;20444;-63
2023/06/25 12:26:42;;;;;;;5.87;5.37;;;36.60;34.60;;;;;;5055307;28;20440;-58
2023/06/25 12:29:11;;;;;;;5.70;5.20;;;36.50;34.60;;;;;;5055344;28;20464;-62
2023/06/25 12:31:38;;;;;;;5.40;4.90;;;36.60;34.50;;;;;;5056039;28;20448;-60
2023/06/25 12:34:05;;;;;;;5.53;5.03;;;36.80;34.30;;;;;;5058707;28;20519;-61
2023/06/25 12:36:31;;;;;;;5.53;5.03;;;36.60;34.40;;;;;;5059623;28;20444;-62
2023/06/25 12:39:00;;;;;;;5.47;5.07;;;36.00;35.10;;;;;;5058200;28;20467;-61
2023/06/25 12:41:27;;;;;;;5.80;5.20;;;35.30;35.90;;;;;;5057931;28;20934;-62
2023/06/25 12:43:53;;;;;;;6.50;5.17;;;34.50;37.60;;;;;;5059112;28;20847;-61
2023/06/25 12:46:22;;;;;;;6.30;5.57;;;33.60;38.40;;;;;;5058753;28;20447;-61